Time;durP1;ratioP1;P1;durP2;ratioP2;P2;SDS_P1;SDS_P2;PMS_P1;PMS_P2;Temp;Humidity;BMP_temperature;BMP_pressure;BME280_temperature;BME280_humidity;BME280_pressure;Samples;Min_cycle;Max_cycle;Signal;HPM_P1;HPM_P2
2023/03/14 00:01:33;;;;;;;;;;;;;;;;;;5047216;28;19917;-56
2023/03/14 00:03:59;;;;;;;;;;;;;;;;;;5047259;28;19919;-57
2023/03/14 00:06:25;;;;;;;;;;;;;;;;;;5048046;28;20340;-57
2023/03/14 00:08:51;;;;;;;;;;;;;;;;;;5047569;28;19925;-56
2023/03/14 00:11:17;;;;;;;;;;;;;;;;;;5047383;28;19913;-57
2023/03/14 00:13:43;;;;;;;;;;;;;;;;;;5047405;28;19917;-57
2023/03/14 00:16:09;;;;;;;;;;;;;;;;;;5047876;28;19912;-56
2023/03/14 00:18:35;;;;;;;;;;;;;;;;;;5047875;28;19948;-56
2023/03/14 00:21:01;;;;;;;;;;;;;;;;;;5047250;28;20004;-57
2023/03/14 00:23:27;;;;;;;;;;;;;;;;;;5038801;28;19913;-57
2023/03/14 00:25:53;;;;;;;;;;;;;;;;;;5039640;28;19913;-56
2023/03/14 00:28:18;;;;;;;;;;;;;;;;;;5034833;28;19929;-57
2023/03/14 00:30:44;;;;;;;;;;;;;;;;;;5047854;28;19955;-57
2023/03/14 00:33:10;;;;;;;;;;;;;;;;;;5047209;28;19978;-57
2023/03/14 00:35:36;;;;;;;;;;;;;;;;;;5042015;28;19913;-58
2023/03/14 00:38:02;;;;;;;;;;;;;;;;;;5047225;28;20689;-57
2023/03/14 00:40:28;;;;;;;;;;;;;;;;;;5043334;28;19913;-58
2023/03/14 00:42:54;;;;;;;;;;;;;;;;;;5028089;28;19952;-58
2023/03/14 00:45:20;;;;;;;;;;;;;;;;;;5028118;28;19935;-57
2023/03/14 00:47:46;;;;;;;;;;;;;;;;;;5028773;28;19910;-56
2023/03/14 00:50:11;;;;;;;;;;;;;;;;;;5031869;28;19924;-58
2023/03/14 00:52:37;;;;;;;;;;;;;;;;;;5031492;28;19913;-57
2023/03/14 00:55:03;;;;;;;;;;;;;;;;;;5031567;28;20365;-58
2023/03/14 00:57:29;;;;;;;;;;;;;;;;;;5034056;28;19913;-57
2023/03/14 00:59:55;;;;;;;;;;;;;;;;;;5050632;28;20690;-58
2023/03/14 01:02:21;;;;;;;;;;;;;;;;;;5034426;28;19979;-57
2023/03/14 01:04:47;;;;;;;;;;;;;;;;;;5030980;28;19917;-58
2023/03/14 01:07:13;;;;;;;;;;;;;;;;;;5031705;28;19920;-56
2023/03/14 01:09:38;;;;;;;;;;;;;;;;;;5031133;28;19921;-57
2023/03/14 01:12:04;;;;;;;;;;;;;;;;;;5030819;28;19913;-57
2023/03/14 01:14:30;;;;;;;;;;;;;;;;;;5045124;28;19912;-57
2023/03/14 01:17:00;;;;;;;;;;;;;;;;;;5042340;28;20406;-56
2023/03/14 01:19:26;;;;;;;;;;;;;;;;;;5048702;28;19908;-58
2023/03/14 01:21:52;;;;;;;;;;;;;;;;;;5049103;28;19919;-57
2023/03/14 01:24:18;;;;;;;;;;;;;;;;;;5050372;28;19920;-58
2023/03/14 01:26:44;;;;;;;;;;;;;;;;;;5035147;28;20006;-55
2023/03/14 01:29:09;;;;;;;;;;;;;;;;;;5037132;28;19927;-57
2023/03/14 01:31:35;;;;;;;;;;;;;;;;;;5050108;28;20698;-56
2023/03/14 01:34:01;;;;;;;;;;;;;;;;;;5036650;28;19913;-58
2023/03/14 01:36:27;;;;;;;;;;;;;;;;;;5030889;28;20701;-57
2023/03/14 01:38:53;;;;;;;;;;;;;;;;;;5030661;28;19914;-57
2023/03/14 01:41:19;;;;;;;;;;;;;;;;;;5035257;28;19943;-57
2023/03/14 01:43:45;;;;;;;;;;;;;;;;;;5045186;28;19960;-56
2023/03/14 01:46:11;;;;;;;;;;;;;;;;;;5031087;28;20404;-57
2023/03/14 01:48:37;;;;;;;;;;;;;;;;;;5030828;28;19921;-58
2023/03/14 01:51:02;;;;;;;;;;;;;;;;;;5031009;28;19955;-58
2023/03/14 01:53:28;;;;;;;;;;;;;;;;;;5030737;28;20436;-57
2023/03/14 01:55:56;;;;;;;;;;;;;;;;;;5030041;28;19960;-58
2023/03/14 01:58:22;;;;;;;;;;;;;;;;;;5040423;28;19912;-57
2023/03/14 02:00:48;;;;;;;;;;;;;;;;;;5049288;28;19920;-57
2023/03/14 02:03:14;;;;;;;;;;;;;;;;;;5042152;28;20000;-57
2023/03/14 02:05:40;;;;;;;;;;;;;;;;;;5043912;28;19913;-57
2023/03/14 02:08:06;;;;;;;;;;;;;;;;;;5030607;28;19913;-57
2023/03/14 02:10:32;;;;;;;;;;;;;;;;;;5030509;28;19924;-56
2023/03/14 02:12:57;;;;;;;;;;;;;;;;;;5045005;28;19927;-56
2023/03/14 02:15:23;;;;;;;;;;;;;;;;;;5049482;28;20377;-55
2023/03/14 02:17:49;;;;;;;;;;;;;;;;;;5046876;28;20007;-56
2023/03/14 02:20:15;;;;;;;;;;;;;;;;;;5030853;28;19988;-57
2023/03/14 02:22:41;;;;;;;;;;;;;;;;;;5030263;28;19909;-55
2023/03/14 02:25:07;;;;;;;;;;;;;;;;;;5029525;28;20357;-57
2023/03/14 02:27:33;;;;;;;;;;;;;;;;;;5030245;28;20555;-57
2023/03/14 02:29:59;;;;;;;;;;;;;;;;;;5029807;28;19947;-57
2023/03/14 02:32:25;;;;;;;;;;;;;;;;;;5030112;28;19941;-56
2023/03/14 02:34:50;;;;;;;;;;;;;;;;;;5023691;28;20336;-57
2023/03/14 02:37:16;;;;;;;;;;;;;;;;;;5045225;28;20288;-57
2023/03/14 02:39:44;;;;;;;;;;;;;;;;;;5036585;28;19917;-56
2023/03/14 02:42:10;;;;;;;;;;;;;;;;;;5030390;28;19956;-57
2023/03/14 02:44:36;;;;;;;;;;;;;;;;;;5029568;28;19956;-58
2023/03/14 02:47:01;;;;;;;;;;;;;;;;;;5029801;28;19913;-57
2023/03/14 02:49:27;;;;;;;;;;;;;;;;;;5041016;28;19916;-57
2023/03/14 02:51:53;;;;;;;;;;;;;;;;;;5036891;28;19932;-58
2023/03/14 02:54:19;;;;;;;;;;;;;;;;;;5029268;28;19932;-57
2023/03/14 02:56:45;;;;;;;;;;;;;;;;;;5029706;28;19910;-58
2023/03/14 02:59:11;;;;;;;;;;;;;;;;;;5029143;28;19953;-57
2023/03/14 03:01:37;;;;;;;;;;;;;;;;;;5029156;28;19913;-58
2023/03/14 03:04:02;;;;;;;;;;;;;;;;;;5030724;28;19913;-56
2023/03/14 03:06:28;;;;;;;;;;;;;;;;;;5048219;28;20004;-54
2023/03/14 03:08:54;;;;;;;;;;;;;;;;;;5038559;28;19941;-56
2023/03/14 03:11:20;;;;;;;;;;;;;;;;;;5028413;28;19913;-57
2023/03/14 03:13:46;;;;;;;;;;;;;;;;;;5029278;28;20030;-57
2023/03/14 03:16:14;;;;;;;;;;;;;;;;;;5028785;28;20027;-57
2023/03/14 03:18:40;;;;;;;;;;;;;;;;;;5030831;28;19994;-58
2023/03/14 03:21:08;;;;;;;;;;;;;;;;;;5040313;28;20396;-57
2023/03/14 03:23:34;;;;;;;;;;;;;;;;;;5028621;28;20373;-57
2023/03/14 03:26:00;;;;;;;;;;;;;;;;;;5028737;28;19913;-56
2023/03/14 03:28:26;;;;;;;;;;;;;;;;;;5036168;28;19924;-55
2023/03/14 03:30:54;;;;;;;;;;;;;;;;;;5047306;28;20213;-55
2023/03/14 03:33:21;;;;;;;;;;;;;;;;;;5048421;28;19917;-57
2023/03/14 03:35:47;;;;;;;;;;;;;;;;;;5046585;28;20370;-55
2023/03/14 03:38:13;;;;;;;;;;;;;;;;;;5047750;28;19909;-57
2023/03/14 03:40:39;;;;;;;;;;;;;;;;;;5043171;28;20483;-57
2023/03/14 03:43:05;;;;;;;;;;;;;;;;;;5047781;28;19913;-56
2023/03/14 03:45:30;;;;;;;;;;;;;;;;;;5048175;28;19909;-56
2023/03/14 03:47:56;;;;;;;;;;;;;;;;;;5048071;28;19913;-56
2023/03/14 03:50:22;;;;;;;;;;;;;;;;;;5035434;28;19960;-51
2023/03/14 03:52:48;;;;;;;;;;;;;;;;;;5028485;28;19909;-56
2023/03/14 03:55:14;;;;;;;;;;;;;;;;;;5028360;28;19920;-57
2023/03/14 03:57:40;;;;;;;;;;;;;;;;;;5033301;28;20011;-56
2023/03/14 04:00:06;;;;;;;;;;;;;;;;;;5042702;28;19910;-55
2023/03/14 04:02:32;;;;;;;;;;;;;;;;;;5028270;28;19921;-57
2023/03/14 04:04:58;;;;;;;;;;;;;;;;;;5028266;28;20338;-57
2023/03/14 04:07:24;;;;;;;;;;;;;;;;;;5044730;28;20405;-57
2023/03/14 04:09:50;;;;;;;;;;;;;;;;;;5039523;28;19975;-56
2023/03/14 04:12:16;;;;;;;;;;;;;;;;;;5027943;28;19920;-56
2023/03/14 04:14:42;;;;;;;;;;;;;;;;;;5028282;28;20000;-57
2023/03/14 04:17:08;;;;;;;;;;;;;;;;;;5028773;28;20020;-55
2023/03/14 04:19:33;;;;;;;;;;;;;;;;;;5028556;28;19924;-56
2023/03/14 04:21:59;;;;;;;;;;;;;;;;;;5037960;28;20408;-57
2023/03/14 04:24:25;;;;;;;;;;;;;;;;;;5033680;28;19963;-57
2023/03/14 04:26:51;;;;;;;;;;;;;;;;;;5032543;28;19913;-57
2023/03/14 04:29:17;;;;;;;;;;;;;;;;;;5032374;28;19917;-57
2023/03/14 04:31:43;;;;;;;;;;;;;;;;;;5032102;28;19917;-57
2023/03/14 04:34:09;;;;;;;;;;;;;;;;;;5031753;28;19917;-56
2023/03/14 04:36:35;;;;;;;;;;;;;;;;;;5046056;28;20390;-56
2023/03/14 04:39:01;;;;;;;;;;;;;;;;;;5051384;28;19909;-57
2023/03/14 04:41:27;;;;;;;;;;;;;;;;;;5050742;28;19920;-57
2023/03/14 04:43:53;;;;;;;;;;;;;;;;;;5050710;28;19913;-57
2023/03/14 04:46:19;;;;;;;;;;;;;;;;;;5050739;28;19956;-56
2023/03/14 04:48:45;;;;;;;;;;;;;;;;;;5024881;28;19913;-56
2023/03/14 04:51:10;;;;;;;;;;;;;;;;;;5031980;28;19967;-56
2023/03/14 04:53:36;;;;;;;;;;;;;;;;;;5037081;28;20015;-56
2023/03/14 04:56:02;;;;;;;;;;;;;;;;;;5050593;28;19909;-56
2023/03/14 04:58:28;;;;;;;;;;;;;;;;;;5034814;28;19913;-55
2023/03/14 05:00:54;;;;;;;;;;;;;;;;;;5031843;28;20370;-56
2023/03/14 05:03:20;;;;;;;;;;;;;;;;;;5031424;28;19916;-57
2023/03/14 05:05:46;;;;;;;;;;;;;;;;;;5031407;28;19917;-56
2023/03/14 05:08:12;;;;;;;;;;;;;;;;;;5035523;28;19920;-56
2023/03/14 05:10:38;;;;;;;;;;;;;;;;;;5050699;28;19924;-56
2023/03/14 05:13:04;;;;;;;;;;;;;;;;;;5047014;28;20016;-55
2023/03/14 05:15:30;;;;;;;;;;;;;;;;;;5031451;28;19918;-56
2023/03/14 05:17:55;;;;;;;;;;;;;;;;;;5031394;28;19913;-57
2023/03/14 05:20:21;;;;;;;;;;;;;;;;;;5031080;28;20026;-56
2023/03/14 05:22:47;;;;;;;;;;;;;;;;;;5031657;28;19994;-56
2023/03/14 05:25:13;;;;;;;;;;;;;;;;;;5039942;28;19916;-59
2023/03/14 05:27:39;;;;;;;;;;;;;;;;;;5035346;28;19971;-59
2023/03/14 05:30:05;;;;;;;;;;;;;;;;;;5030991;28;19921;-58
2023/03/14 05:32:31;;;;;;;;;;;;;;;;;;5031339;28;20451;-60
2023/03/14 05:34:58;;;;;;;;;;;;;;;;;;5030125;28;20556;-59
2023/03/14 05:37:24;;;;;;;;;;;;;;;;;;5050032;28;20000;-60
2023/03/14 05:39:50;;;;;;;;;;;;;;;;;;5049866;28;20015;-59
2023/03/14 05:42:16;;;;;;;;;;;;;;;;;;5040035;28;19913;-58
2023/03/14 05:44:42;;;;;;;;;;;;;;;;;;5046080;28;19913;-59
2023/03/14 05:47:08;;;;;;;;;;;;;;;;;;5049483;28;19971;-60
2023/03/14 05:49:34;;;;;;;;;;;;;;;;;;5049585;28;19921;-58
2023/03/14 05:52:00;;;;;;;;;;;;;;;;;;5023893;28;19958;-58
2023/03/14 05:54:26;;;;;;;;;;;;;;;;;;5030292;28;19924;-60
2023/03/14 05:56:52;;;;;;;;;;;;;;;;;;5036255;28;19920;-59
2023/03/14 05:59:18;;;;;;;;;;;;;;;;;;5049633;28;19912;-59
2023/03/14 06:01:44;;;;;;;;;;;;;;;;;;5049059;28;19913;-60
2023/03/14 06:04:10;;;;;;;;;;;;;;;;;;5039654;28;20337;-61
2023/03/14 06:06:35;;;;;;;;;;;;;;;;;;5031121;28;19909;-61
2023/03/14 06:09:01;;;;;;;;;;;;;;;;;;5029921;28;20471;-60
2023/03/14 06:11:27;;;;;;;;;;;;;;;;;;5030415;28;19914;-59
2023/03/14 06:13:53;;;;;;;;;;;;;;;;;;5030187;28;20435;-59
2023/03/14 06:16:19;;;;;;;;;;;;;;;;;;5029924;28;19913;-59
2023/03/14 06:18:46;;;;;;;;;;;;;;;;;;5030073;28;19913;-59
2023/03/14 06:21:12;;;;;;;;;;;;;;;;;;5030270;28;19919;-59
2023/03/14 06:23:38;;;;;;;;;;;;;;;;;;5030157;28;20011;-60
2023/03/14 06:26:04;;;;;;;;;;;;;;;;;;5029977;28;19967;-61
2023/03/14 06:28:30;;;;;;;;;;;;;;;;;;5029350;28;19932;-63
2023/03/14 06:30:56;;;;;;;;;;;;;;;;;;5031960;28;19913;-61
2023/03/14 06:33:22;;;;;;;;;;;;;;;;;;5040235;28;19924;-61
2023/03/14 06:35:48;;;;;;;;;;;;;;;;;;5029136;28;19920;-60
2023/03/14 06:38:14;;;;;;;;;;;;;;;;;;5029738;28;19913;-63
2023/03/14 06:40:39;;;;;;;;;;;;;;;;;;5029444;28;20004;-62
2023/03/14 06:43:05;;;;;;;;;;;;;;;;;;5043488;28;19944;-64
2023/03/14 06:45:31;;;;;;;;;;;;;;;;;;5047506;28;19913;-63
2023/03/14 06:47:57;;;;;;;;;;;;;;;;;;5035854;28;19917;-62
2023/03/14 06:50:23;;;;;;;;;;;;;;;;;;5029033;28;19918;-61
2023/03/14 06:52:49;;;;;;;;;;;;;;;;;;5029407;28;19959;-63
2023/03/14 06:55:15;;;;;;;;;;;;;;;;;;5040024;28;19948;-63
2023/03/14 06:57:41;;;;;;;;;;;;;;;;;;5048649;28;20381;-63
2023/03/14 07:00:07;;;;;;;;;;;;;;;;;;5048376;28;19955;-60
2023/03/14 07:02:33;;;;;;;;;;;;;;;;;;5028988;28;19917;-62
2023/03/14 07:05:00;;;;;;;;;;;;;;;;;;5034022;28;19920;-62
2023/03/14 07:07:26;;;;;;;;;;;;;;;;;;5034801;28;19913;-57
2023/03/14 07:09:52;;;;;;;;;;;;;;;;;;5028864;28;19939;-58
2023/03/14 07:12:18;;;;;;;;;;;;;;;;;;5028613;28;20037;-58
2023/03/14 07:14:43;;;;;;;;;;;;;;;;;;5028833;28;19913;-59
2023/03/14 07:17:09;;;;;;;;;;;;;;;;;;5028762;28;19935;-57
2023/03/14 07:19:35;;;;;;;;;;;;;;;;;;5028551;28;19917;-56
2023/03/14 07:22:01;;;;;;;;;;;;;;;;;;5028699;28;19975;-58
2023/03/14 07:24:27;;;;;;;;;;;;;;;;;;5028988;28;19920;-58
2023/03/14 07:26:53;;;;;;;;;;;;;;;;;;5044449;28;20404;-59
2023/03/14 07:29:19;;;;;;;;;;;;;;;;;;5045297;28;19971;-58
2023/03/14 07:31:45;;;;;;;;;;;;;;;;;;5047752;28;19945;-58
2023/03/14 07:34:11;;;;;;;;;;;;;;;;;;5047506;28;19909;-59
2023/03/14 07:36:37;;;;;;;;;;;;;;;;;;5026569;28;20287;-57
2023/03/14 07:39:04;;;;;;;;;;;;;;;;;;5024480;28;19962;-57
2023/03/14 07:41:30;;;;;;;;;;;;;;;;;;5027317;28;20019;-57
2023/03/14 07:43:55;;;;;;;;;;;;;;;;;;5026999;28;19920;-57
2023/03/14 07:46:21;;;;;;;;;;;;;;;;;;5027261;28;19913;-56
2023/03/14 07:48:47;;;;;;;;;;;;;;;;;;5028614;28;19975;-57
2023/03/14 07:51:13;;;;;;;;;;;;;;;;;;5039608;28;19917;-57
2023/03/14 07:53:39;;;;;;;;;;;;;;;;;;5027470;28;19909;-56
2023/03/14 07:56:05;;;;;;;;;;;;;;;;;;5026300;28;19952;-57
2023/03/14 07:58:31;;;;;;;;;;;;;;;;;;5042099;28;19913;-57
2023/03/14 08:00:57;;;;;;;;;;;;;;;;;;5052105;28;19923;-57
2023/03/14 08:03:22;;;;;;;;;;;;;;;;;;5052104;28;19920;-57
2023/03/14 08:05:49;;;;;;;;;;;;;;;;;;5052353;28;19996;-58
2023/03/14 08:08:15;;;;;;;;;;;;;;;;;;5043794;28;19909;-57
2023/03/14 08:10:40;;;;;;;;;;;;;;;;;;5037764;28;19928;-57
2023/03/14 08:13:06;;;;;;;;;;;;;;;;;;5051519;28;20348;-58
2023/03/14 08:15:32;;;;;;;;;;;;;;;;;;5051929;28;20007;-58
2023/03/14 08:17:58;;;;;;;;;;;;;;;;;;5051442;28;20564;-56
2023/03/14 08:20:24;;;;;;;;;;;;;;;;;;5038719;28;19924;-58
2023/03/14 08:22:50;;;;;;;;;;;;;;;;;;5052045;28;19951;-58
2023/03/14 08:25:16;;;;;;;;;;;;;;;;;;5051501;28;19908;-58
2023/03/14 08:27:42;;;;;;;;;;;;;;;;;;5042435;28;19934;-58
2023/03/14 08:30:08;;;;;;;;;;;;;;;;;;5032368;28;19928;-57
2023/03/14 08:32:34;;;;;;;;;;;;;;;;;;5047444;28;19999;-58
2023/03/14 08:35:00;;;;;;;;;;;;;;;;;;5044715;28;19916;-58
2023/03/14 08:37:26;;;;;;;;;;;;;;;;;;5046981;28;19912;-57
2023/03/14 08:39:52;;;;;;;;;;;;;;;;;;5051063;28;19916;-57
2023/03/14 08:42:18;;;;;;;;;;;;;;;;;;5050618;28;19913;-57
2023/03/14 08:44:44;;;;;;;;;;;;;;;;;;5036369;28;20368;-58
2023/03/14 08:47:10;;;;;;;;;;;;;;;;;;5032135;28;19928;-56
2023/03/14 08:49:36;;;;;;;;;;;;;;;;;;5045421;28;19921;-58
2023/03/14 08:52:02;;;;;;;;;;;;;;;;;;5038889;28;19964;-58
2023/03/14 08:54:28;;;;;;;;;;;;;;;;;;5031092;28;19913;-59
2023/03/14 08:56:54;;;;;;;;;;;;;;;;;;5031357;28;19920;-59
2023/03/14 08:59:19;;;;;;;;;;;;;;;;;;5029804;28;20473;-59
2023/03/14 09:01:45;;;;;;;;;;;;;;;;;;5044622;28;19908;-60
2023/03/14 09:04:11;;;;;;;;;;;;;;;;;;5050699;28;20297;-58
2023/03/14 09:06:37;;;;;;;;;;;;;;;;;;5037721;28;19963;-59
2023/03/14 09:09:03;;;;;;;;;;;;;;;;;;5030095;28;20341;-59
2023/03/14 09:11:29;;;;;;;;;;;;;;;;;;5031127;28;19913;-58
2023/03/14 09:13:55;;;;;;;;;;;;;;;;;;5031639;28;19924;-58
2023/03/14 09:16:21;;;;;;;;;;;;;;;;;;5042709;28;20397;-59
2023/03/14 09:18:47;;;;;;;;;;;;;;;;;;5050013;28;20396;-59
2023/03/14 09:21:13;;;;;;;;;;;;;;;;;;5049757;28;19912;-58
2023/03/14 09:23:38;;;;;;;;;;;;;;;;;;5045506;28;19914;-59
2023/03/14 09:26:05;;;;;;;;;;;;;;;;;;5046912;28;19913;-59
2023/03/14 09:28:30;;;;;;;;;;;;;;;;;;5043515;28;20003;-58
2023/03/14 09:30:56;;;;;;;;;;;;;;;;;;5049841;28;20051;-59
2023/03/14 09:33:22;;;;;;;;;;;;;;;;;;5049931;28;19963;-58
2023/03/14 09:35:48;;;;;;;;;;;;;;;;;;5043155;28;19912;-59
2023/03/14 09:38:15;;;;;;;;;;;;;;;;;;5049547;28;19913;-59
2023/03/14 09:40:40;;;;;;;;;;;;;;;;;;5049235;28;20305;-59
2023/03/14 09:43:06;;;;;;;;;;;;;;;;;;5041551;28;19917;-58
2023/03/14 09:45:32;;;;;;;;;;;;;;;;;;5030033;28;19919;-58
2023/03/14 09:47:58;;;;;;;;;;;;;;;;;;5030166;28;19921;-58
2023/03/14 09:50:24;;;;;;;;;;;;;;;;;;5030228;28;19925;-58
2023/03/14 09:52:50;;;;;;;;;;;;;;;;;;5030142;28;19909;-59
2023/03/14 09:55:16;;;;;;;;;;;;;;;;;;5029240;28;20576;-57
2023/03/14 09:57:42;;;;;;;;;;;;;;;;;;5030468;28;19909;-58
2023/03/14 10:00:13;;;;;;;;;;;;;;;;;;5029658;28;20011;-58
2023/03/14 10:02:39;;;;;;;;;;;;;;;;;;5029959;28;20034;-58
2023/03/14 10:05:05;;;;;;;;;;;;;;;;;;5037005;28;20004;-58
2023/03/14 10:07:31;;;;;;;;;;;;;;;;;;5029750;28;19924;-56
2023/03/14 10:09:57;;;;;;;;;;;;;;;;;;5029352;28;19997;-58
2023/03/14 10:12:23;;;;;;;;;;;;;;;;;;5030338;28;20278;-57
2023/03/14 10:14:49;;;;;;;;;;;;;;;;;;5030645;28;19913;-57
2023/03/14 10:17:16;;;;;;;;;;;;;;;;;;5030426;28;20397;-56
2023/03/14 10:19:42;;;;;;;;;;;;;;;;;;5036538;28;19916;-57
2023/03/14 10:22:08;;;;;;;;;;;;;;;;;;5048868;28;19909;-57
2023/03/14 10:24:34;;;;;;;;;;;;;;;;;;5044170;28;19936;-57
2023/03/14 10:27:02;;;;;;;;;;;;;;;;;;5029478;28;20020;-57
2023/03/14 10:29:27;;;;;;;;;;;;;;;;;;5030437;28;20020;-57
2023/03/14 10:31:53;;;;;;;;;;;;;;;;;;5029697;28;20351;-57
2023/03/14 10:34:19;;;;;;;;;;;;;;;;;;5029760;28;19913;-57
2023/03/14 10:36:45;;;;;;;;;;;;;;;;;;5039955;28;19920;-57
2023/03/14 10:39:12;;;;;;;;;;;;;;;;;;5045487;28;19923;-59
2023/03/14 10:41:38;;;;;;;;;;;;;;;;;;5048861;28;19920;-57
2023/03/14 10:44:04;;;;;;;;;;;;;;;;;;5049066;28;19909;-58
2023/03/14 10:46:30;;;;;;;;;;;;;;;;;;5039198;28;20469;-58
2023/03/14 10:48:56;;;;;;;;;;;;;;;;;;5032073;28;19999;-58
2023/03/14 10:51:21;;;;;;;;;;;;;;;;;;5046643;28;20394;-58
2023/03/14 10:53:47;;;;;;;;;;;;;;;;;;5048723;28;19920;-58
2023/03/14 10:56:13;;;;;;;;;;;;;;;;;;5048558;28;19915;-58
2023/03/14 10:58:39;;;;;;;;;;;;;;;;;;5042104;28;19956;-57
2023/03/14 11:01:05;;;;;;;;;;;;;;;;;;5046770;28;19913;-57
2023/03/14 11:03:31;;;;;;;;;;;;;;;;;;5029008;28;19921;-57
2023/03/14 11:05:57;;;;;;;;;;;;;;;;;;5029128;28;19936;-58
2023/03/14 11:08:23;;;;;;;;;;;;;;;;;;5028746;28;19913;-58
2023/03/14 11:10:49;;;;;;;;;;;;;;;;;;5029229;28;20023;-57
2023/03/14 11:13:15;;;;;;;;;;;;;;;;;;5029253;28;19913;-58
2023/03/14 11:15:41;;;;;;;;;;;;;;;;;;5042384;28;19973;-58
2023/03/14 11:18:06;;;;;;;;;;;;;;;;;;5022472;28;19948;-58
2023/03/14 11:20:32;;;;;;;;;;;;;;;;;;5028466;28;19913;-58
2023/03/14 11:22:58;;;;;;;;;;;;;;;;;;5024203;28;19913;-58
2023/03/14 11:25:24;;;;;;;;;;;;;;;;;;5017351;28;20405;-58
2023/03/14 11:27:51;;;;;;;;;;;;;;;;;;5028516;28;20261;-58
2023/03/14 11:30:17;;;;;;;;;;;;;;;;;;5027571;28;19925;-59
2023/03/14 11:32:42;;;;;;;;;;;;;;;;;;5022308;28;19918;-59
2023/03/14 11:35:08;;;;;;;;;;;;;;;;;;5027886;28;19999;-60
2023/03/14 11:37:34;;;;;;;;;;;;;;;;;;5041956;28;19913;-57
2023/03/14 11:40:00;;;;;;;;;;;;;;;;;;5025294;28;20287;-58
2023/03/14 11:42:26;;;;;;;;;;;;;;;;;;5026254;28;19913;-58
2023/03/14 11:44:52;;;;;;;;;;;;;;;;;;5046456;28;19913;-57
2023/03/14 11:47:18;;;;;;;;;;;;;;;;;;5046170;28;20024;-58
2023/03/14 11:49:44;;;;;;;;;;;;;;;;;;5043021;28;19925;-58
2023/03/14 11:52:10;;;;;;;;;;;;;;;;;;5026918;28;20342;-57
2023/03/14 11:54:36;;;;;;;;;;;;;;;;;;5026725;28;19967;-58
2023/03/14 11:57:02;;;;;;;;;;;;;;;;;;5026866;28;19939;-58
2023/03/14 11:59:27;;;;;;;;;;;;;;;;;;5026416;28;19921;-58
2023/03/14 12:01:53;;;;;;;;;;;;;;;;;;5027595;28;20016;-58
2023/03/14 12:04:19;;;;;;;;;;;;;;;;;;5020372;28;19925;-59
2023/03/14 12:06:45;;;;;;;;;;;;;;;;;;5029255;28;19921;-59
2023/03/14 12:09:11;;;;;;;;;;;;;;;;;;5027058;28;19928;-60
2023/03/14 12:11:37;;;;;;;;;;;;;;;;;;5026287;28;20350;-58
2023/03/14 12:14:03;;;;;;;;;;;;;;;;;;5023518;28;19909;-59
2023/03/14 12:16:29;;;;;;;;;;;;;;;;;;5028415;28;19952;-58
2023/03/14 12:18:54;;;;;;;;;;;;;;;;;;5027339;28;19909;-57
2023/03/14 12:21:20;;;;;;;;;;;;;;;;;;5046465;28;19959;-59
2023/03/14 12:23:46;;;;;;;;;;;;;;;;;;5046105;28;19959;-60
2023/03/14 12:26:12;;;;;;;;;;;;;;;;;;5026976;28;20393;-58
2023/03/14 12:28:38;;;;;;;;;;;;;;;;;;5034866;28;19921;-58
2023/03/14 12:31:04;;;;;;;;;;;;;;;;;;5044750;28;19971;-60
2023/03/14 12:33:30;;;;;;;;;;;;;;;;;;5038926;28;19916;-59
2023/03/14 12:35:56;;;;;;;;;;;;;;;;;;5031383;28;19956;-59
2023/03/14 12:38:22;;;;;;;;;;;;;;;;;;5045867;28;19971;-58
2023/03/14 12:40:48;;;;;;;;;;;;;;;;;;5045735;28;19924;-59
2023/03/14 12:43:13;;;;;;;;;;;;;;;;;;5043874;28;19955;-59
2023/03/14 12:45:39;;;;;;;;;;;;;;;;;;5030642;28;20382;-59
2023/03/14 12:48:05;;;;;;;;;;;;;;;;;;5030181;28;19963;-59
2023/03/14 12:50:31;;;;;;;;;;;;;;;;;;5030312;28;19974;-60
2023/03/14 12:52:57;;;;;;;;;;;;;;;;;;5030937;28;19913;-60
2023/03/14 12:55:23;;;;;;;;;;;;;;;;;;5030515;28;19919;-59
2023/03/14 12:57:49;;;;;;;;;;;;;;;;;;5030732;28;20020;-60
2023/03/14 13:00:15;;;;;;;;;;;;;;;;;;5030276;28;19909;-60
2023/03/14 13:02:41;;;;;;;;;;;;;;;;;;5030238;28;19913;-60
2023/03/14 13:05:10;;;;;;;;;;;;;;;;;;5049709;28;20032;-60
2023/03/14 13:07:35;;;;;;;;;;;;;;;;;;5049249;28;19966;-58
2023/03/14 13:10:01;;;;;;;;;;;;;;;;;;5044682;28;19956;-60
2023/03/14 13:12:29;;;;;;;;;;;;;;;;;;5049364;28;19920;-60
2023/03/14 13:14:55;;;;;;;;;;;;;;;;;;5041392;28;19959;-60
2023/03/14 13:17:21;;;;;;;;;;;;;;;;;;5029515;28;19952;-59
2023/03/14 13:19:47;;;;;;;;;;;;;;;;;;5030035;28;20377;-58
2023/03/14 13:22:13;;;;;;;;;;;;;;;;;;5028423;28;19966;-59
2023/03/14 13:24:39;;;;;;;;;;;;;;;;;;5027101;28;20346;-59
2023/03/14 13:27:05;;;;;;;;;;;;;;;;;;5031232;28;19913;-60
2023/03/14 13:29:33;;;;;;;;;;;;;;;;;;5036337;28;20393;-59
2023/03/14 13:31:59;;;;;;;;;;;;;;;;;;5042033;28;19916;-60
2023/03/14 13:34:25;;;;;;;;;;;;;;;;;;5049426;28;19920;-59
2023/03/14 13:36:51;;;;;;;;;;;;;;;;;;5035607;28;19947;-59
2023/03/14 13:39:17;;;;;;;;;;;;;;;;;;5042796;28;20317;-62
2023/03/14 13:41:43;;;;;;;;;;;;;;;;;;5030497;28;20356;-60
2023/03/14 13:44:09;;;;;;;;;;;;;;;;;;5029696;28;19917;-59
2023/03/14 13:46:35;;;;;;;;;;;;;;;;;;5029441;28;20404;-60
2023/03/14 13:49:00;;;;;;;;;;;;;;;;;;5029506;28;20382;-58
2023/03/14 13:51:31;;;;;;;;;;;;;;;;;;5029493;28;19920;-61
2023/03/14 13:53:57;;;;;;;;;;;;;;;;;;5029250;28;19948;-60
2023/03/14 13:56:23;;;;;;;;;;;;;;;;;;5028415;28;20347;-59
2023/03/14 13:58:49;;;;;;;;;;;;;;;;;;5028795;28;20016;-59
2023/03/14 14:01:15;;;;;;;;;;;;;;;;;;5028919;28;20016;-59
2023/03/14 14:03:41;;;;;;;;;;;;;;;;;;5028695;28;19910;-59
2023/03/14 14:06:07;;;;;;;;;;;;;;;;;;5028717;28;19909;-59
2023/03/14 14:08:32;;;;;;;;;;;;;;;;;;5028879;28;20066;-59
2023/03/14 14:10:59;;;;;;;;;;;;;;;;;;5028960;28;19920;-59
2023/03/14 14:13:25;;;;;;;;;;;;;;;;;;5028910;28;19983;-59
2023/03/14 14:15:51;;;;;;;;;;;;;;;;;;5027940;28;19922;-60
2023/03/14 14:18:17;;;;;;;;;;;;;;;;;;5028029;28;19913;-59
2023/03/14 14:20:43;;;;;;;;;;;;;;;;;;5028447;28;19967;-60
2023/03/14 14:23:09;;;;;;;;;;;;;;;;;;5028258;28;19920;-60
2023/03/14 14:25:35;;;;;;;;;;;;;;;;;;5027794;28;19991;-58
2023/03/14 14:28:00;;;;;;;;;;;;;;;;;;5028209;28;19921;-59
2023/03/14 14:30:27;;;;;;;;;;;;;;;;;;5026520;28;19921;-60
2023/03/14 14:32:53;;;;;;;;;;;;;;;;;;5028183;28;19913;-62
2023/03/14 14:35:18;;;;;;;;;;;;;;;;;;5027760;28;19935;-61
2023/03/14 14:37:44;;;;;;;;;;;;;;;;;;5027768;28;19929;-60
2023/03/14 14:40:10;;;;;;;;;;;;;;;;;;5047257;28;19912;-60
2023/03/14 14:42:36;;;;;;;;;;;;;;;;;;5033779;28;19913;-60
2023/03/14 14:45:02;;;;;;;;;;;;;;;;;;5027577;28;19920;-60
2023/03/14 14:47:28;;;;;;;;;;;;;;;;;;5027816;28;19975;-61
2023/03/14 14:49:54;;;;;;;;;;;;;;;;;;5028137;28;19923;-61
2023/03/14 14:52:20;;;;;;;;;;;;;;;;;;5034340;28;19920;-61
2023/03/14 14:54:46;;;;;;;;;;;;;;;;;;5032805;28;19916;-60
2023/03/14 14:57:12;;;;;;;;;;;;;;;;;;5046828;28;19912;-61
2023/03/14 14:59:38;;;;;;;;;;;;;;;;;;5036725;28;20012;-61
2023/03/14 15:02:04;;;;;;;;;;;;;;;;;;5027441;28;20023;-60
2023/03/14 15:04:30;;;;;;;;;;;;;;;;;;5027786;28;19913;-61
2023/03/14 15:06:56;;;;;;;;;;;;;;;;;;5026615;28;19939;-60
2023/03/14 15:09:22;;;;;;;;;;;;;;;;;;5027005;28;19936;-62
2023/03/14 15:11:48;;;;;;;;;;;;;;;;;;5028299;28;19917;-61
2023/03/14 15:14:14;;;;;;;;;;;;;;;;;;5029583;28;19916;-60
2023/03/14 15:16:40;;;;;;;;;;;;;;;;;;5030983;28;19924;-61
2023/03/14 15:19:06;;;;;;;;;;;;;;;;;;5024342;28;20309;-60
2023/03/14 15:21:33;;;;;;;;;;;;;;;;;;5031530;28;19921;-60
2023/03/14 15:23:59;;;;;;;;;;;;;;;;;;5036708;28;19913;-60
2023/03/14 15:26:24;;;;;;;;;;;;;;;;;;5046228;28;19920;-60
2023/03/14 15:28:50;;;;;;;;;;;;;;;;;;5046183;28;19971;-61
2023/03/14 15:31:17;;;;;;;;;;;;;;;;;;5045378;28;19920;-60
2023/03/14 15:33:43;;;;;;;;;;;;;;;;;;5027236;28;19909;-61
2023/03/14 15:36:09;;;;;;;;;;;;;;;;;;5034318;28;19913;-60
2023/03/14 15:38:35;;;;;;;;;;;;;;;;;;5046403;28;20376;-60
2023/03/14 15:41:01;;;;;;;;;;;;;;;;;;5045907;28;20007;-61
2023/03/14 15:43:27;;;;;;;;;;;;;;;;;;5044864;28;20540;-59
2023/03/14 15:45:53;;;;;;;;;;;;;;;;;;5040103;28;19927;-59
2023/03/14 15:48:19;;;;;;;;;;;;;;;;;;5038682;28;20300;-59
2023/03/14 15:50:44;;;;;;;;;;;;;;;;;;5045719;28;19928;-60
2023/03/14 15:53:10;;;;;;;;;;;;;;;;;;5027838;28;20321;-60
2023/03/14 15:55:36;;;;;;;;;;;;;;;;;;5026601;28;20016;-60
2023/03/14 15:58:02;;;;;;;;;;;;;;;;;;5026915;28;20372;-61
2023/03/14 16:00:28;;;;;;;;;;;;;;;;;;5044441;28;20384;-60
2023/03/14 16:02:54;;;;;;;;;;;;;;;;;;5027698;28;19917;-59
2023/03/14 16:05:20;;;;;;;;;;;;;;;;;;5029054;28;19918;-60
2023/03/14 16:07:46;;;;;;;;;;;;;;;;;;5026493;28;19917;-61
2023/03/14 16:10:12;;;;;;;;;;;;;;;;;;5025918;28;19932;-60
2023/03/14 16:12:38;;;;;;;;;;;;;;;;;;5029515;28;20365;-60
2023/03/14 16:15:04;;;;;;;;;;;;;;;;;;5026572;28;19913;-60
2023/03/14 16:17:29;;;;;;;;;;;;;;;;;;5025042;28;19975;-61
2023/03/14 16:19:55;;;;;;;;;;;;;;;;;;5029594;28;20012;-60
2023/03/14 16:22:21;;;;;;;;;;;;;;;;;;5046751;28;20008;-61
2023/03/14 16:24:47;;;;;;;;;;;;;;;;;;5047770;28;19909;-59
2023/03/14 16:27:13;;;;;;;;;;;;;;;;;;5031207;28;19916;-61
2023/03/14 16:29:39;;;;;;;;;;;;;;;;;;5030219;28;19953;-61
2023/03/14 16:32:05;;;;;;;;;;;;;;;;;;5030606;28;19917;-60
2023/03/14 16:34:31;;;;;;;;;;;;;;;;;;5030837;28;19956;-61
2023/03/14 16:36:57;;;;;;;;;;;;;;;;;;5022591;28;20664;-60